Wetterdaten: Februar 2015
Datum Temp Feuchte Luftdruck Regen Wind Richtung Sonnenschein UV Solar Windben
01.02.2015 0,4 C 92 % 991,2 hPa 1,2 l/m 0,5 km/h S 3,00 h 0,7 UV-I 131 W/m 5,2 km/h
02.02.2015 0,3 C 96 % 998,3 hPa 2,6 l/m 6,3 km/h W 0,00 h 0,5 UV-I 51 W/m 18,9 km/h
03.02.2015 -0,2 C 92 % 1004,1 hPa 0,4 l/m 4,9 km/h NW 1,50 h 0,6 UV-I 83 W/m 10,4 km/h
04.02.2015 -3,0 C 91 % 1015,3 hPa 0,0 l/m 0,0 km/h N-NW 1,67 h 0,6 UV-I 111 W/m 0,0 km/h
05.02.2015 -2,6 C 86 % 1024,2 hPa 0,0 l/m 3,8 km/h N-NO 4,33 h 0,9 UV-I 193 W/m 15,7 km/h
06.02.2015 -3,2 C 86 % 1029,9 hPa 0,0 l/m 2,4 km/h N-NO 6,33 h 0,9 UV-I 205 W/m 8,0 km/h
07.02.2015 -1,5 C 93 % 1028,3 hPa 0,8 l/m 2,4 km/h N-NW 4,33 h 1,0 UV-I 165 W/m 10,9 km/h
08.02.2015 0,9 C 74 % 1027,8 hPa 2,4 l/m 7,6 km/h N-NW 6,33 h 0,9 UV-I 222 W/m 15,7 km/h
09.02.2015 3,2 C 97 % 1026,3 hPa 7,6 l/m 3,7 km/h N-NW 0,00 h 0,6 UV-I 53 W/m 15,7 km/h
10.02.2015 3,2 C 97 % 1030,1 hPa 1,2 l/m 1,5 km/h NW 0,00 h 0,6 UV-I 61 W/m 6,0 km/h
11.02.2015 1,4 C 94 % 1025,0 hPa 0,0 l/m 4,2 km/h S-SO 0,08 h 0,7 UV-I 87 W/m 8,9 km/h
12.02.2015 -0,2 C 96 % 1021,9 hPa 0,0 l/m 5,6 km/h S-SO 0,00 h 0,7 UV-I 87 W/m 12,1 km/h
13.02.2015 1,1 C 91 % 1015,8 hPa 0,2 l/m 8,6 km/h S-SO 6,50 h 0,9 UV-I 215 W/m 14,9 km/h
14.02.2015 2,5 C 86 % 1011,5 hPa 0,0 l/m 3,3 km/h S-SO 4,83 h 0,8 UV-I 190 W/m 5,6 km/h
15.02.2015 0,9 C 87 % 1015,8 hPa 0,0 l/m 1,1 km/h NO 7,08 h 0,9 UV-I 230 W/m 5,6 km/h
16.02.2015 1,3 C 88 % 1019,9 hPa 0,2 l/m 7,5 km/h S-SO 7,17 h 1,0 UV-I 236 W/m 12,9 km/h
17.02.2015 1,4 C 96 % 1034,5 hPa 0,2 l/m 0,8 km/h W-NW 0,00 h 0,5 UV-I 46 W/m 2,8 km/h
18.02.2015 1,7 C 86 % 1038,0 hPa 0,2 l/m 0,0 km/h S 5,50 h 1,1 UV-I 221 W/m 0,0 km/h
19.02.2015 0,4 C 86 % 1025,7 hPa 0,0 l/m 6,6 km/h S 6,17 h 1,1 UV-I 235 W/m 11,7 km/h
20.02.2015 4,9 C 83 % 1007,6 hPa 1,6 l/m 13,6 km/h S 0,25 h 0,6 UV-I 63 W/m 22,1 km/h
21.02.2015 3,1 C 88 % 998,5 hPa 1,2 l/m 3,2 km/h S 1,67 h 0,8 UV-I 111 W/m 16,9 km/h
22.02.2015 1,3 C 82 % 1007,7 hPa 0,0 l/m 0,4 km/h S 3,08 h 0,9 UV-I 180 W/m 3,2 km/h
23.02.2015 0,5 C 97 % 996,2 hPa 22,2 l/m 6,2 km/h S 0,00 h 0,6 UV-I 45 W/m 10,5 km/h
24.02.2015 2,5 C 87 % 1007,8 hPa 0,4 l/m 3,7 km/h S 2,33 h 0,8 UV-I 126 W/m 7,6 km/h
25.02.2015 3,6 C 80 % 1017,8 hPa 0,2 l/m 1,6 km/h S-SW 7,00 h 1,1 UV-I 284 W/m 5,3 km/h
26.02.2015 4,8 C 81 % 1014,9 hPa 0,0 l/m 9,3 km/h S-SO 2,33 h 1,1 UV-I 177 W/m 16,1 km/h
27.02.2015 1,9 C 94 % 1015,1 hPa 13,2 l/m 4,0 km/h S-SO 0,00 h 0,6 UV-I 62 W/m 7,2 km/h
28.02.2015 2,5 C 76 % 1015,9 hPa 0,2 l/m 5,3 km/h S 8,00 h 1,3 UV-I 295 W/m 12,1 km/h
Min-Datum 07.02.15 08.02.15 01.02.15 18 Tage 01.02.15 - - - - 01.02.15
Min-Zeit 06:40 15:10 00:00 - 00:00 - - - - 00:00
Minimum -8,3 C 48 % 985,8 hPa - 0,0 km/h - - - - 0,0 km/h
Max-Datum 25.02.15 01.02.15 18.02.15 23.02.15 23.02.15 - 28.02.15 28.02.15 22.02.15 08.02.15
Max-Zeit 15:10 00:25 09:05 07:00 01:40 - 16:35 13:00 12:30 01:45
Maximum 9,2 C 100 % 1041,3 hPa 22,2 l/m 27,8 km/h
S
- 7,92 h 2,0 UV-I 696 W/m 51,5 km/h
N-NW
Durchschnitt 1,2 C 89 % 1016,6 hPa #56,0 l/m 4,2 km/h S #89:30 h 0,8 UV-I 149 W/m 10,1 km/h

Durchschnitt Minimum Temp.-1,7 C
Durchschnitt Maximum Temp.4,2 C